Time;durP1;ratioP1;P1;durP2;ratioP2;P2;SDS_P1;SDS_P2;PMS_P1;PMS_P2;Temp;Humidity;BMP_temperature;BMP_pressure;BME280_temperature;BME280_humidity;BME280_pressure;Samples;Min_cycle;Max_cycle;Signal;HPM_P1;HPM_P2
2023/02/19 00:01:33;;;;;;;;;;;;;;;3.89;79.69;99154.23;1718991;83;20219;-81
2023/02/19 00:04:36;;;;;;;;;;;;;;;3.90;79.80;99156.44;1718989;83;20195;-81
2023/02/19 00:07:42;;;;;;;;;;;;;;;3.92;79.63;99157.14;1719045;83;20222;-81
2023/02/19 00:10:46;;;;;;;;;;;;;;;3.82;80.03;99156.75;1717445;83;20223;-81
2023/02/19 00:13:53;;;;;;;;;;;;;;;3.83;80.02;99156.25;1718983;83;20195;-83
2023/02/19 00:16:58;;;;;;;;;;;;;;;3.93;79.85;99157.47;1718887;83;20254;-84
2023/02/19 00:20:03;;;;;;;;;;;;;;;3.90;79.70;99147.81;1717501;83;20190;-84
2023/02/19 00:23:08;;;;;;;;;;;;;;;3.93;79.62;99147.50;1718799;83;20195;-81
2023/02/19 00:26:18;;;;;;;;;;;;;;;4.01;79.24;99150.25;1718828;83;20235;-81
2023/02/19 00:29:25;;;;;;;;;;;;;;;4.00;79.31;99151.74;1717304;83;20219;-81
2023/02/19 00:32:31;;;;;;;;;;;;;;;4.02;79.24;99146.52;1718830;83;20243;-83
2023/02/19 00:35:35;;;;;;;;;;;;;;;4.07;79.05;99135.21;1718216;83;20192;-83
2023/02/19 00:38:44;;;;;;;;;;;;;;;4.00;78.86;99132.33;1717277;83;20191;-82
2023/02/19 00:41:50;;;;;;;;;;;;;;;4.02;78.83;99128.09;1719092;83;20194;-80
2023/02/19 00:44:56;;;;;;;;;;;;;;;3.91;78.87;99119.77;1719052;83;20199;-81
2023/02/19 00:48:00;;;;;;;;;;;;;;;3.94;79.00;99128.05;1719044;83;20195;-83
2023/02/19 00:51:04;;;;;;;;;;;;;;;3.98;78.90;99128.07;1718983;83;20192;-83
2023/02/19 00:54:10;;;;;;;;;;;;;;;3.97;78.97;99120.97;1718901;83;20175;-80
2023/02/19 00:57:15;;;;;;;;;;;;;;;3.97;78.90;99127.23;1721885;83;20215;-81
2023/02/19 01:00:20;;;;;;;;;;;;;;;3.91;78.99;99136.52;1721872;83;20195;-81
2023/02/19 01:03:26;;;;;;;;;;;;;;;3.84;79.09;99129.53;1721962;83;20191;-80
2023/02/19 01:06:33;;;;;;;;;;;;;;;3.79;79.53;99134.58;1721692;83;20208;-80
2023/02/19 01:09:37;;;;;;;;;;;;;;;3.89;79.40;99127.69;1720791;83;20199;-80
2023/02/19 01:12:41;;;;;;;;;;;;;;;3.93;79.02;99112.84;1721844;83;20223;-82
2023/02/19 01:15:47;;;;;;;;;;;;;;;4.19;78.64;99116.80;1721885;83;20642;-80
2023/02/19 01:18:52;;;;;;;;;;;;;;;4.07;78.47;99113.56;1721745;83;20599;-82
2023/02/19 01:21:57;;;;;;;;;;;;;;;3.98;78.79;99105.92;1721693;83;20195;-83
2023/02/19 01:25:01;;;;;;;;;;;;;;;4.02;78.33;99116.76;1721747;83;20175;-80
2023/02/19 01:28:04;;;;;;;;;;;;;;;4.07;78.07;99114.41;1721809;83;20587;-83
2023/02/19 01:31:10;;;;;;;;;;;;;;;4.09;78.06;99110.17;1721913;83;20195;-81
2023/02/19 01:34:16;;;;;;;;;;;;;;;4.03;78.13;99108.98;1721804;83;20586;-80
2023/02/19 01:37:20;;;;;;;;;;;;;;;4.10;78.15;99114.09;1721690;83;20199;-82
2023/02/19 01:40:25;;;;;;;;;;;;;;;4.17;77.76;99112.92;1721766;83;20198;-80
2023/02/19 01:43:22;;;;;;;;;;;;;;;4.07;77.96;99112.21;1721808;83;20661;-83
2023/02/19 01:46:26;;;;;;;;;;;;;;;4.01;78.11;99105.60;1721787;83;20179;-83
2023/02/19 01:49:39;;;;;;;;;;;;;;;4.08;77.96;99103.08;1721858;83;20227;-81
2023/02/19 01:52:43;;;;;;;;;;;;;;;4.07;77.73;99102.74;1721820;82;20191;-80
2023/02/19 01:55:48;;;;;;;;;;;;;;;4.14;77.42;99097.50;1724108;83;20199;-82
2023/02/19 01:58:54;;;;;;;;;;;;;;;4.25;77.11;99106.18;1724007;83;20218;-82
2023/02/19 02:01:59;;;;;;;;;;;;;;;4.08;77.51;99105.78;1724181;83;20200;-81
2023/02/19 02:05:03;;;;;;;;;;;;;;;4.01;77.72;99107.46;1724045;83;20622;-80
2023/02/19 02:11:29;;;;;;;;;;;;;;;3.96;77.85;99113.36;1724191;83;20179;-83
2023/02/19 02:14:34;;;;;;;;;;;;;;;3.97;77.84;99126.38;1724156;83;20191;-80
2023/02/19 02:17:44;;;;;;;;;;;;;;;3.87;78.19;99129.73;1724257;83;20195;-80
2023/02/19 02:20:55;;;;;;;;;;;;;;;3.82;78.52;99124.80;1724243;83;20191;-80
2023/02/19 02:24:21;;;;;;;;;;;;;;;3.72;78.61;99127.63;1723554;83;20179;-81
2023/02/19 02:27:51;;;;;;;;;;;;;;;3.60;79.05;99131.61;1724080;83;20207;-80
2023/02/19 02:31:00;;;;;;;;;;;;;;;3.59;79.02;99138.03;1724260;83;20191;-82
2023/02/19 02:34:17;;;;;;;;;;;;;;;3.58;78.82;99143.11;1724208;83;20183;-83
2023/02/19 02:37:21;;;;;;;;;;;;;;;3.50;79.19;99146.59;1716326;83;20196;-83
2023/02/19 02:40:27;;;;;;;;;;;;;;;3.45;79.53;99134.57;1723292;83;20191;-80
2023/02/19 02:43:32;;;;;;;;;;;;;;;3.32;79.94;99145.28;1723797;83;20207;-81
2023/02/19 02:46:40;;;;;;;;;;;;;;;3.25;80.29;99146.95;1724162;83;20585;-80
2023/02/19 02:50:03;;;;;;;;;;;;;;;3.19;80.59;99154.30;1723039;83;20199;-80
2023/02/19 02:56:16;;;;;;;;;;;;;;;3.21;80.76;99162.28;1718327;81;20197;-80
2023/02/19 02:59:23;;;;;;;;;;;;;;;3.24;81.00;99154.68;1718273;83;20200;-83
2023/02/19 03:02:30;;;;;;;;;;;;;;;3.22;81.24;99152.66;1719116;83;20195;-80
2023/02/19 03:05:53;;;;;;;;;;;;;;;3.25;81.33;99159.11;1719334;83;20187;-82
2023/02/19 03:08:58;;;;;;;;;;;;;;;3.38;80.98;99157.82;1719048;83;20199;-82
2023/02/19 03:22:18;;;;;;;;;;;;;;;3.24;81.40;99172.75;1718926;83;20639;-83
2023/02/19 03:32:20;;;;;;;;;;;;;;;3.24;81.47;99175.45;1719026;83;20196;-80
2023/02/19 03:35:27;;;;;;;;;;;;;;;3.27;81.31;99176.00;1719096;83;20583;-81
2023/02/19 03:38:39;;;;;;;;;;;;;;;3.19;81.50;99172.38;1719061;83;20200;-82
2023/02/19 03:42:03;;;;;;;;;;;;;;;3.17;81.64;99170.35;1719168;83;20550;-83
2023/02/19 03:45:23;;;;;;;;;;;;;;;3.25;81.43;99179.88;1719060;83;20184;-83
2023/02/19 03:48:39;;;;;;;;;;;;;;;3.20;81.70;99175.42;1719143;83;20179;-83
2023/02/19 03:51:47;;;;;;;;;;;;;;;3.19;81.79;99188.09;1659087;83;20583;-82
2023/02/19 03:54:59;;;;;;;;;;;;;;;3.16;81.99;99190.28;1719093;83;20219;-80
2023/02/19 03:58:21;;;;;;;;;;;;;;;3.18;82.05;99184.20;1699280;83;20598;-83
2023/02/19 04:01:43;;;;;;;;;;;;;;;3.14;82.22;99184.16;1719209;83;20199;-81
2023/02/19 04:04:53;;;;;;;;;;;;;;;3.12;82.58;99180.28;1685133;83;20196;-84
2023/02/19 04:08:01;;;;;;;;;;;;;;;3.31;81.99;99182.79;1719200;83;20179;-81
2023/02/19 04:11:09;;;;;;;;;;;;;;;3.46;81.62;99172.75;1719166;83;20190;-80
2023/02/19 04:14:32;;;;;;;;;;;;;;;3.47;81.70;99177.15;1719106;83;20223;-83
2023/02/19 04:17:40;;;;;;;;;;;;;;;3.48;81.81;99182.42;1719129;83;20199;-82
2023/02/19 04:20:51;;;;;;;;;;;;;;;3.52;81.75;99176.16;1719060;83;20191;-80
2023/02/19 04:23:55;;;;;;;;;;;;;;;3.54;81.97;99171.47;1719035;83;20215;-82
2023/02/19 04:26:53;;;;;;;;;;;;;;;3.59;82.12;99157.80;1719089;83;20583;-83
2023/02/19 04:29:46;;;;;;;;;;;;;;;3.62;82.31;99159.33;1719152;83;20183;-82
2023/02/19 04:32:49;;;;;;;;;;;;;;;3.69;82.51;99157.69;1718961;83;20179;-82
2023/02/19 04:35:52;;;;;;;;;;;;;;;3.77;82.50;99165.86;1718994;83;20199;-79
2023/02/19 04:38:57;;;;;;;;;;;;;;;3.82;82.61;99167.58;1718981;83;20216;-82
2023/02/19 04:42:01;;;;;;;;;;;;;;;3.95;82.33;99163.56;1719063;83;20634;-82
2023/02/19 04:45:04;;;;;;;;;;;;;;;3.97;82.19;99158.85;1719023;83;20196;-82
2023/02/19 04:48:10;;;;;;;;;;;;;;;3.95;82.21;99160.85;1718899;83;20207;-80
2023/02/19 04:51:16;;;;;;;;;;;;;;;3.94;82.32;99174.89;1718388;83;20304;-82
2023/02/19 04:54:20;;;;;;;;;;;;;;;3.93;82.38;99177.77;1719008;83;20653;-83
2023/02/19 04:57:24;;;;;;;;;;;;;;;3.89;82.46;99175.03;1717545;82;20236;-81
2023/02/19 05:00:30;;;;;;;;;;;;;;;3.88;82.58;99180.11;1717415;83;20239;-83
2023/02/19 05:03:34;;;;;;;;;;;;;;;3.83;82.91;99182.79;1719028;83;20619;-82
2023/02/19 05:06:38;;;;;;;;;;;;;;;3.81;83.15;99179.89;1718990;83;20171;-81
2023/02/19 05:09:42;;;;;;;;;;;;;;;3.86;83.24;99191.10;1718610;83;20611;-84
2023/02/19 05:12:47;;;;;;;;;;;;;;;3.93;83.19;99185.89;1717486;83;20207;-83
2023/02/19 05:16:03;;;;;;;;;;;;;;;3.96;83.32;99183.71;1718967;83;20176;-84
2023/02/19 05:19:06;;;;;;;;;;;;;;;4.00;83.56;99192.33;1717308;83;20192;-80
2023/02/19 05:22:11;;;;;;;;;;;;;;;4.15;83.46;99192.09;1717959;83;20200;-82
2023/02/19 05:25:17;;;;;;;;;;;;;;;4.19;83.09;99189.41;1718424;83;20243;-80
2023/02/19 05:28:27;;;;;;;;;;;;;;;4.27;82.87;99195.34;1718773;83;20208;-82
2023/02/19 05:31:28;;;;;;;;;;;;;;;4.25;82.79;99184.68;1717376;83;20191;-80
2023/02/19 05:34:32;;;;;;;;;;;;;;;4.27;82.62;99184.00;1717263;83;20183;-80
2023/02/19 05:37:37;;;;;;;;;;;;;;;4.37;82.28;99191.98;1718819;83;20175;-83
2023/02/19 05:40:41;;;;;;;;;;;;;;;4.34;82.46;99190.47;1717532;83;20195;-83
2023/02/19 05:43:47;;;;;;;;;;;;;;;4.40;82.22;99193.02;1717422;83;20195;-82
2023/02/19 05:46:51;;;;;;;;;;;;;;;4.32;82.85;99196.53;1719163;83;20207;-82
2023/02/19 05:49:55;;;;;;;;;;;;;;;4.37;82.86;99193.34;1719068;83;20237;-81
2023/02/19 05:52:59;;;;;;;;;;;;;;;4.46;82.59;99199.13;1719106;83;20223;-80
2023/02/19 05:56:04;;;;;;;;;;;;;;;4.44;82.52;99201.67;1719014;83;20195;-82
2023/02/19 05:59:11;;;;;;;;;;;;;;;4.52;82.19;99192.23;1718324;81;20701;-80
2023/02/19 06:02:16;;;;;;;;;;;;;;;4.46;82.26;99187.45;1717586;83;20204;-82
2023/02/19 06:05:21;;;;;;;;;;;;;;;4.53;82.29;99186.64;1719061;83;20602;-80
2023/02/19 06:08:26;;;;;;;;;;;;;;;4.51;82.30;99200.83;1719045;83;20195;-82
2023/02/19 06:11:30;;;;;;;;;;;;;;;4.50;82.14;99190.17;1718886;83;20204;-82
2023/02/19 06:14:34;;;;;;;;;;;;;;;4.49;82.21;99190.69;1719014;83;20611;-81
2023/02/19 06:17:39;;;;;;;;;;;;;;;4.43;82.23;99183.23;1719061;83;20212;-80
2023/02/19 06:20:43;;;;;;;;;;;;;;;4.56;81.66;99180.91;1719103;83;20179;-80
2023/02/19 06:23:46;;;;;;;;;;;;;;;4.64;81.32;99188.18;1718547;83;20180;-82
2023/02/19 06:26:51;;;;;;;;;;;;;;;4.75;80.72;99184.30;1717497;83;20231;-80
2023/02/19 06:29:56;;;;;;;;;;;;;;;4.68;81.05;99191.41;1719081;83;20192;-82
2023/02/19 06:33:00;;;;;;;;;;;;;;;4.72;81.29;99196.33;1719105;83;20195;-82
2023/02/19 06:36:07;;;;;;;;;;;;;;;4.96;81.01;99197.39;1719139;83;20579;-81
2023/02/19 06:39:11;;;;;;;;;;;;;;;4.75;81.33;99197.84;1719044;83;20207;-82
2023/02/19 06:42:14;;;;;;;;;;;;;;;4.76;81.36;99205.83;1719056;83;20568;-81
2023/02/19 06:45:18;;;;;;;;;;;;;;;4.76;81.25;99203.63;1719114;83;20192;-82
2023/02/19 06:48:23;;;;;;;;;;;;;;;4.81;81.32;99203.47;1719069;83;20251;-82
2023/02/19 06:51:28;;;;;;;;;;;;;;;4.80;81.58;99201.78;1719039;83;20196;-80
2023/02/19 06:54:34;;;;;;;;;;;;;;;4.85;81.86;99202.63;1719026;83;20195;-80
2023/02/19 06:57:38;;;;;;;;;;;;;;;5.00;81.89;99197.40;1719037;83;20579;-82
2023/02/19 07:00:42;;;;;;;;;;;;;;;5.19;81.26;99195.72;1727908;81;20198;-80
2023/02/19 07:03:46;;;;;;;;;;;;;;;5.31;80.74;99197.05;1729556;83;20670;-82
2023/02/19 07:06:50;;;;;;;;;;;;;;;5.30;80.58;99196.72;1729891;83;20634;-80
2023/02/19 07:09:55;;;;;;;;;;;;;;;5.36;80.14;99187.05;1728224;83;20206;-80
2023/02/19 07:12:59;;;;;;;;;;;;;;;5.35;79.81;99197.05;1729830;83;20182;-79
2023/02/19 07:16:11;;;;;;;;;;;;;;;5.31;79.59;99193.50;1729785;83;20212;-80
2023/02/19 07:19:16;;;;;;;;;;;;;;;5.33;79.44;99192.33;1729980;83;20464;-80
2023/02/19 07:22:21;;;;;;;;;;;;;;;5.45;79.19;99202.30;1729855;83;20594;-81
2023/02/19 07:25:24;;;;;;;;;;;;;;;5.47;79.41;99213.00;1729681;83;20610;-81
2023/02/19 07:28:29;;;;;;;;;;;;;;;5.55;79.39;99211.62;1729830;83;20210;-82
2023/02/19 07:31:32;;;;;;;;;;;;;;;5.70;79.22;99205.02;1729916;83;20187;-81
2023/02/19 07:34:37;;;;;;;;;;;;;;;5.81;79.03;99216.86;1728824;83;20195;-82
2023/02/19 07:37:40;;;;;;;;;;;;;;;6.03;78.41;99211.25;1728208;83;20595;-82
2023/02/19 07:40:44;;;;;;;;;;;;;;;6.40;77.36;99218.25;1729891;83;20578;-80
2023/02/19 07:43:48;;;;;;;;;;;;;;;6.46;76.58;99219.41;1729317;83;20191;-82
2023/02/19 07:46:54;;;;;;;;;;;;;;;6.23;76.76;99215.25;1729865;83;20211;-80
2023/02/19 07:49:58;;;;;;;;;;;;;;;6.17;76.62;99224.11;1728432;83;20219;-83
2023/02/19 07:53:03;;;;;;;;;;;;;;;6.19;76.44;99228.00;1729482;83;20202;-81
2023/02/19 07:56:10;;;;;;;;;;;;;;;6.13;77.13;99223.60;1729499;83;20223;-81
2023/02/19 07:59:18;;;;;;;;;;;;;;;6.29;75.88;99226.77;1729869;83;20594;-81
2023/02/19 08:05:50;;;;;;;;;;;;;;;6.57;74.83;99213.58;1721897;83;20199;-82
2023/02/19 08:08:56;;;;;;;;;;;;;;;6.48;75.45;99216.51;1721768;83;20619;-81
2023/02/19 08:15:23;;;;;;;;;;;;;;;6.90;75.41;99222.39;1706856;83;20191;-81
2023/02/19 08:18:30;;;;;;;;;;;;;;;7.18;74.09;99220.52;1720371;83;20227;-81
2023/02/19 08:21:33;;;;;;;;;;;;;;;7.36;73.20;99225.66;1721850;83;20219;-81
2023/02/19 08:24:41;;;;;;;;;;;;;;;7.34;73.30;99232.66;1720274;83;20191;-80
2023/02/19 08:27:44;;;;;;;;;;;;;;;7.00;74.29;99226.23;1721775;83;20195;-81
2023/02/19 08:30:51;;;;;;;;;;;;;;;7.31;73.70;99237.09;1721640;83;20192;-83
2023/02/19 08:33:56;;;;;;;;;;;;;;;7.53;72.08;99235.88;1721825;83;20223;-82
2023/02/19 08:37:00;;;;;;;;;;;;;;;7.62;72.19;99238.86;1721887;83;20219;-83
2023/02/19 08:40:06;;;;;;;;;;;;;;;7.66;72.09;99247.84;1720459;83;20200;-80
2023/02/19 08:43:19;;;;;;;;;;;;;;;7.51;71.12;99248.83;1721849;83;20183;-82
2023/02/19 08:46:23;;;;;;;;;;;;;;;7.60;71.04;99247.73;1721896;83;20199;-81
2023/02/19 08:49:33;;;;;;;;;;;;;;;7.79;70.47;99249.95;1721779;83;20879;-80
2023/02/19 08:52:38;;;;;;;;;;;;;;;7.79;70.91;99251.31;1721690;83;20187;-80
2023/02/19 08:55:44;;;;;;;;;;;;;;;7.86;70.10;99245.47;1720086;83;20203;-82
2023/02/19 08:58:48;;;;;;;;;;;;;;;8.01;70.03;99259.11;1721025;83;20199;-82
2023/02/19 09:01:52;;;;;;;;;;;;;;;8.11;69.55;99261.05;1726048;81;20207;-81
2023/02/19 09:04:56;;;;;;;;;;;;;;;8.02;68.94;99272.20;1728407;83;20610;-81
2023/02/19 09:08:01;;;;;;;;;;;;;;;7.83;68.72;99260.80;1729641;83;20196;-81
2023/02/19 09:11:08;;;;;;;;;;;;;;;8.03;69.02;99253.47;1729881;83;20195;-82
2023/02/19 09:14:13;;;;;;;;;;;;;;;8.06;68.00;99268.09;1728869;83;20219;-81
2023/02/19 09:17:18;;;;;;;;;;;;;;;8.27;67.41;99258.66;1729756;83;20191;-81
2023/02/19 09:20:22;;;;;;;;;;;;;;;8.42;68.29;99258.69;1728064;83;20820;-80
2023/02/19 09:23:27;;;;;;;;;;;;;;;8.45;68.30;99257.80;1728046;83;20219;-82
2023/02/19 09:26:31;;;;;;;;;;;;;;;8.47;67.24;99253.55;1728030;83;20199;-81
2023/02/19 09:29:36;;;;;;;;;;;;;;;8.56;65.63;99256.50;1728659;83;20190;-81
2023/02/19 09:32:40;;;;;;;;;;;;;;;8.68;66.29;99263.67;1729559;83;20601;-81
2023/02/19 09:35:47;;;;;;;;;;;;;;;8.78;65.55;99264.21;1728359;83;20175;-82
2023/02/19 09:38:52;;;;;;;;;;;;;;;8.73;66.36;99260.38;1729873;83;20650;-82
2023/02/19 09:41:58;;;;;;;;;;;;;;;8.68;65.54;99260.42;1729823;83;20586;-82
2023/02/19 09:45:04;;;;;;;;;;;;;;;8.70;64.37;99256.13;1729874;83;20194;-80
2023/02/19 09:48:09;;;;;;;;;;;;;;;8.58;64.43;99259.03;1729846;83;20195;-80
2023/02/19 09:51:12;;;;;;;;;;;;;;;8.64;65.09;99259.63;1729828;83;20598;-81
2023/02/19 09:54:23;;;;;;;;;;;;;;;8.57;64.86;99236.91;1712423;83;20199;-82
2023/02/19 09:57:28;;;;;;;;;;;;;;;8.33;64.97;99239.37;1729885;83;20195;-80
2023/02/19 10:00:37;;;;;;;;;;;;;;;8.18;66.21;99239.34;1729764;83;20195;-81
2023/02/19 10:03:46;;;;;;;;;;;;;;;8.22;66.38;99240.66;1721764;83;20275;-80
2023/02/19 10:06:43;;;;;;;;;;;;;;;8.20;66.00;99239.50;1703624;83;20219;-82
2023/02/19 10:09:36;;;;;;;;;;;;;;;8.29;64.84;99233.45;1721728;83;20177;-80
2023/02/19 10:12:27;;;;;;;;;;;;;;;8.20;66.31;99229.96;1721925;83;20202;-81
2023/02/19 10:15:24;;;;;;;;;;;;;;;8.07;65.80;99227.03;1720975;83;20195;-81
2023/02/19 10:18:29;;;;;;;;;;;;;;;7.89;65.29;99221.09;1721775;83;20219;-82
2023/02/19 10:21:33;;;;;;;;;;;;;;;7.92;66.26;99222.94;1721845;83;20407;-80
2023/02/19 10:24:37;;;;;;;;;;;;;;;7.96;64.38;99228.02;1721737;83;20200;-80
2023/02/19 10:27:41;;;;;;;;;;;;;;;7.98;64.28;99225.43;1721758;83;20196;-82
2023/02/19 10:30:47;;;;;;;;;;;;;;;7.97;65.61;99226.47;1721807;83;20195;-81
2023/02/19 10:34:01;;;;;;;;;;;;;;;7.88;66.39;99220.25;1721876;83;20598;-82
2023/02/19 10:37:06;;;;;;;;;;;;;;;7.94;66.33;99205.89;1722079;83;20219;-81
2023/02/19 10:40:10;;;;;;;;;;;;;;;8.01;63.83;99206.01;1721879;83;20175;-82
2023/02/19 10:43:15;;;;;;;;;;;;;;;8.00;63.22;99207.05;1721882;83;20195;-80
2023/02/19 10:46:23;;;;;;;;;;;;;;;8.05;63.62;99225.55;1685065;83;20179;-82
2023/02/19 10:49:45;;;;;;;;;;;;;;;8.20;64.13;99223.67;1721935;83;20639;-80
2023/02/19 10:52:49;;;;;;;;;;;;;;;8.17;63.24;99226.76;1721773;83;20571;-82
2023/02/19 10:55:53;;;;;;;;;;;;;;;8.22;62.79;99220.75;1722062;83;20180;-80
2023/02/19 10:58:57;;;;;;;;;;;;;;;8.12;63.57;99227.31;1721853;83;20593;-80
2023/02/19 11:02:05;;;;;;;;;;;;;;;8.36;62.56;99225.35;1721825;83;20180;-81
2023/02/19 11:05:22;;;;;;;;;;;;;;;8.41;62.16;99233.31;1729903;83;20191;-81
2023/02/19 11:08:29;;;;;;;;;;;;;;;8.48;62.51;99232.58;1729913;83;20207;-81
2023/02/19 11:11:38;;;;;;;;;;;;;;;8.54;63.89;99234.02;1729935;83;20191;-82
2023/02/19 11:14:43;;;;;;;;;;;;;;;8.68;60.74;99241.34;1729839;83;20257;-80
2023/02/19 11:17:47;;;;;;;;;;;;;;;8.61;60.02;99230.88;1712370;83;20219;-82
2023/02/19 11:21:03;;;;;;;;;;;;;;;8.65;58.15;99232.16;1712633;83;20195;-81
2023/02/19 11:24:08;;;;;;;;;;;;;;;8.54;59.00;99233.18;1729834;83;20611;-80
2023/02/19 11:27:13;;;;;;;;;;;;;;;8.43;57.90;99221.73;1729840;83;20195;-81
2023/02/19 11:30:41;;;;;;;;;;;;;;;8.31;57.01;99216.90;1712587;83;20194;-82
2023/02/19 11:34:09;;;;;;;;;;;;;;;8.33;56.19;99225.23;1729215;83;20199;-80
2023/02/19 11:37:17;;;;;;;;;;;;;;;8.33;55.56;99220.30;1728476;83;20199;-80
2023/02/19 11:40:20;;;;;;;;;;;;;;;8.31;54.50;99228.64;1729821;83;20191;-80
2023/02/19 11:43:38;;;;;;;;;;;;;;;8.44;54.52;99219.33;1729908;83;20214;-81
2023/02/19 11:47:02;;;;;;;;;;;;;;;8.47;55.14;99219.48;1729842;83;20170;-81
2023/02/19 11:50:32;;;;;;;;;;;;;;;8.53;53.93;99223.31;1729862;83;20175;-80
2023/02/19 11:53:38;;;;;;;;;;;;;;;8.60;54.15;99214.17;1729869;83;20634;-81
2023/02/19 11:56:46;;;;;;;;;;;;;;;8.59;54.48;99236.18;1729037;83;20199;-80
2023/02/19 11:59:56;;;;;;;;;;;;;;;8.51;55.10;99231.66;1729067;83;20219;-82
2023/02/19 12:03:23;;;;;;;;;;;;;;;8.63;54.81;99238.34;1729721;83;20195;-80
2023/02/19 12:06:38;;;;;;;;;;;;;;;8.86;53.94;99239.58;1721097;83;20191;-80
2023/02/19 12:10:05;;;;;;;;;;;;;;;8.89;54.24;99244.66;1720720;83;20179;-82
2023/02/19 12:13:30;;;;;;;;;;;;;;;8.95;54.92;99254.79;1721709;83;20224;-81
2023/02/19 12:17:00;;;;;;;;;;;;;;;9.11;55.16;99253.70;1689352;83;20187;-81
2023/02/19 12:20:24;;;;;;;;;;;;;;;9.00;55.88;99252.84;1720435;83;20219;-80
2023/02/19 12:24:04;;;;;;;;;;;;;;;8.83;56.05;99250.85;1658116;86;20208;-82
2023/02/19 12:27:32;;;;;;;;;;;;;;;8.98;55.81;99243.16;1720778;83;20195;-81
2023/02/19 12:31:08;;;;;;;;;;;;;;;8.96;55.83;99241.47;1720943;83;20195;-82
2023/02/19 12:34:34;;;;;;;;;;;;;;;8.88;56.22;99247.03;1721073;83;20614;-81
2023/02/19 12:37:43;;;;;;;;;;;;;;;9.37;54.45;99243.61;1720525;83;20634;-80
2023/02/19 12:40:53;;;;;;;;;;;;;;;9.37;54.67;99238.15;1720268;83;20226;-82
2023/02/19 12:44:02;;;;;;;;;;;;;;;9.50;53.31;99229.22;1721768;83;20195;-81
2023/02/19 12:47:06;;;;;;;;;;;;;;;9.59;52.78;99246.31;1715770;83;20618;-82
2023/02/19 12:50:20;;;;;;;;;;;;;;;9.32;52.47;99243.34;1721727;83;20207;-82
2023/02/19 12:53:34;;;;;;;;;;;;;;;9.07;53.32;99250.19;1721820;83;20199;-82
2023/02/19 12:56:51;;;;;;;;;;;;;;;8.94;53.52;99246.28;1721825;83;20175;-82
2023/02/19 13:00:12;;;;;;;;;;;;;;;8.79;54.29;99250.90;1721849;83;20199;-82
2023/02/19 13:03:22;;;;;;;;;;;;;;;8.62;54.89;99254.89;1720296;83;20203;-80
2023/02/19 13:06:46;;;;;;;;;;;;;;;8.81;55.20;99251.57;1680993;85;20217;-80
2023/02/19 13:10:04;;;;;;;;;;;;;;;8.78;55.66;99247.86;1680842;85;20225;-80
2023/02/19 13:13:11;;;;;;;;;;;;;;;8.89;55.90;99246.02;1680894;85;20214;-80
2023/02/19 13:16:20;;;;;;;;;;;;;;;8.85;56.32;99253.41;1680833;85;20173;-82
2023/02/19 13:19:24;;;;;;;;;;;;;;;8.90;56.47;99249.06;1680907;85;20296;-82
2023/02/19 13:26:20;;;;;;;;;;;;;;;8.53;57.91;99266.92;1681014;85;20276;-80
2023/02/19 13:29:33;;;;;;;;;;;;;;;8.45;57.87;99268.70;1680890;85;20225;-80
2023/02/19 13:33:06;;;;;;;;;;;;;;;8.39;57.57;99275.42;1681017;85;20177;-80
2023/02/19 13:36:17;;;;;;;;;;;;;;;8.23;57.61;99274.19;1680951;85;20429;-81
2023/02/19 13:39:22;;;;;;;;;;;;;;;8.18;57.21;99281.56;1680911;85;20197;-80
2023/02/19 13:42:32;;;;;;;;;;;;;;;7.92;57.86;99284.72;1680906;85;20197;-82
2023/02/19 13:45:42;;;;;;;;;;;;;;;7.85;58.41;99270.14;1681059;85;20181;-80
2023/02/19 13:48:48;;;;;;;;;;;;;;;7.83;58.65;99267.61;1680374;85;20193;-80
2023/02/19 13:51:57;;;;;;;;;;;;;;;7.74;59.07;99263.27;1680902;85;20193;-81
2023/02/19 13:55:21;;;;;;;;;;;;;;;7.76;59.43;99260.34;1680936;85;20221;-80
2023/02/19 13:58:43;;;;;;;;;;;;;;;7.69;59.98;99258.38;1680634;85;20605;-82
2023/02/19 14:02:05;;;;;;;;;;;;;;;7.74;60.07;99264.63;1680853;85;20198;-80
2023/02/19 14:05:18;;;;;;;;;;;;;;;7.69;60.50;99260.25;1688996;81;20211;-82
2023/02/19 14:08:23;;;;;;;;;;;;;;;7.68;60.67;99264.01;1729661;83;20195;-80
2023/02/19 14:11:47;;;;;;;;;;;;;;;7.60;61.20;99273.08;1712629;83;20198;-82
2023/02/19 14:14:43;;;;;;;;;;;;;;;7.52;61.73;99253.24;1711310;83;20207;-82
2023/02/19 14:17:50;;;;;;;;;;;;;;;7.46;61.88;99245.81;1729767;83;20191;-82
2023/02/19 14:20:54;;;;;;;;;;;;;;;7.35;62.48;99245.22;1729906;83;20194;-80
2023/02/19 14:24:03;;;;;;;;;;;;;;;7.42;62.54;99255.69;1729831;83;20199;-81
2023/02/19 14:27:07;;;;;;;;;;;;;;;7.57;62.15;99250.81;1729869;83;20194;-80
2023/02/19 14:30:12;;;;;;;;;;;;;;;7.30;62.94;99245.44;1729934;83;20195;-81
2023/02/19 14:33:16;;;;;;;;;;;;;;;7.41;62.92;99249.08;1729829;83;20191;-81
2023/02/19 14:36:31;;;;;;;;;;;;;;;7.38;62.81;99242.11;1730047;83;20179;-81
2023/02/19 14:39:39;;;;;;;;;;;;;;;7.38;62.79;99248.07;1729865;83;20210;-82
2023/02/19 14:42:43;;;;;;;;;;;;;;;7.32;62.77;99248.81;1729960;83;20219;-81
2023/02/19 14:45:50;;;;;;;;;;;;;;;7.15;63.30;99250.78;1729980;83;20195;-81
2023/02/19 14:48:56;;;;;;;;;;;;;;;7.20;62.89;99242.08;1728677;83;20595;-80
2023/02/19 14:52:04;;;;;;;;;;;;;;;7.09;62.87;99255.07;1728203;83;20227;-82
2023/02/19 14:55:18;;;;;;;;;;;;;;;7.10;62.81;99258.12;1728541;83;20581;-80
2023/02/19 14:58:27;;;;;;;;;;;;;;;7.07;62.77;99254.94;1729684;83;20665;-80
2023/02/19 15:01:34;;;;;;;;;;;;;;;6.95;62.65;99259.08;1729870;83;20222;-81
2023/02/19 15:04:42;;;;;;;;;;;;;;;6.93;62.75;99265.22;1729945;83;20175;-81
2023/02/19 15:07:47;;;;;;;;;;;;;;;6.81;62.86;99261.52;1728406;81;20626;-80
2023/02/19 15:10:52;;;;;;;;;;;;;;;6.77;63.03;99258.81;1729886;83;20199;-82
2023/02/19 15:13:59;;;;;;;;;;;;;;;6.63;63.34;99259.08;1729832;83;20235;-81
2023/02/19 15:17:08;;;;;;;;;;;;;;;6.54;63.66;99259.26;1729844;83;20202;-80
2023/02/19 15:20:13;;;;;;;;;;;;;;;6.40;64.02;99250.00;1729805;83;20215;-80
2023/02/19 15:23:20;;;;;;;;;;;;;;;6.42;63.95;99266.12;1729905;83;20178;-82
2023/02/19 15:26:32;;;;;;;;;;;;;;;6.37;63.94;99271.55;1729935;83;20194;-81
2023/02/19 15:29:36;;;;;;;;;;;;;;;6.33;63.98;99266.13;1728880;83;20175;-80
2023/02/19 15:32:43;;;;;;;;;;;;;;;6.27;63.96;99263.28;1729795;83;20223;-80
2023/02/19 15:35:47;;;;;;;;;;;;;;;6.18;64.31;99267.88;1724499;83;20575;-82
2023/02/19 15:38:53;;;;;;;;;;;;;;;6.15;64.46;99262.79;1724486;83;20175;-80
2023/02/19 15:42:04;;;;;;;;;;;;;;;6.01;64.89;99268.41;1724981;83;20602;-81
2023/02/19 15:45:14;;;;;;;;;;;;;;;5.94;65.04;99275.56;1724911;83;20578;-81
2023/02/19 15:48:21;;;;;;;;;;;;;;;6.06;65.09;99271.97;1725760;83;20594;-80
2023/02/19 15:51:34;;;;;;;;;;;;;;;5.87;65.98;99267.21;1724974;83;20222;-80
2023/02/19 15:54:42;;;;;;;;;;;;;;;5.97;66.11;99264.86;1724806;83;20618;-82
2023/02/19 15:57:50;;;;;;;;;;;;;;;6.02;66.37;99270.61;1725042;83;20178;-82
2023/02/19 16:01:09;;;;;;;;;;;;;;;6.04;66.33;99264.52;1724891;83;20203;-80
2023/02/19 16:04:23;;;;;;;;;;;;;;;5.95;66.96;99265.55;1724907;83;20195;-80
2023/02/19 16:07:38;;;;;;;;;;;;;;;5.80;67.47;99262.66;1725989;83;20234;-80
2023/02/19 16:10:42;;;;;;;;;;;;;;;5.70;67.80;99268.27;1729851;83;20257;-81
2023/02/19 16:13:46;;;;;;;;;;;;;;;5.66;67.99;99268.27;1729906;81;20186;-82
2023/02/19 16:16:49;;;;;;;;;;;;;;;5.66;68.20;99270.98;1729798;83;20195;-80
2023/02/19 16:19:56;;;;;;;;;;;;;;;5.39;69.19;99270.80;1729779;81;20222;-81
2023/02/19 16:23:10;;;;;;;;;;;;;;;5.36;69.61;99281.48;1729876;83;20203;-81
2023/02/19 16:26:15;;;;;;;;;;;;;;;5.59;69.24;99285.70;1729929;83;20198;-81
2023/02/19 16:29:30;;;;;;;;;;;;;;;5.61;68.97;99288.27;1729744;81;20186;-80
2023/02/19 16:32:34;;;;;;;;;;;;;;;5.58;69.40;99292.16;1729858;83;20605;-82
2023/02/19 16:35:46;;;;;;;;;;;;;;;5.56;69.43;99286.58;1729888;83;20202;-81
2023/02/19 16:39:16;;;;;;;;;;;;;;;5.53;69.99;99284.20;1729904;81;20202;-80
2023/02/19 16:42:20;;;;;;;;;;;;;;;5.54;70.07;99279.95;1729962;83;20578;-81
2023/02/19 16:45:18;;;;;;;;;;;;;;;5.63;70.03;99279.44;1729890;81;20202;-82
2023/02/19 16:48:24;;;;;;;;;;;;;;;5.52;70.54;99275.21;1729823;81;20281;-81
2023/02/19 16:51:32;;;;;;;;;;;;;;;5.57;70.52;99276.91;1729848;83;20186;-82
2023/02/19 16:54:36;;;;;;;;;;;;;;;5.54;70.68;99280.45;1729835;81;20580;-82
2023/02/19 16:57:41;;;;;;;;;;;;;;;5.53;70.75;99282.84;1729800;83;20594;-82
2023/02/19 17:00:45;;;;;;;;;;;;;;;5.46;71.00;99282.68;1729821;83;20223;-81
2023/02/19 17:03:51;;;;;;;;;;;;;;;5.28;71.53;99284.18;1729870;81;20202;-82
2023/02/19 17:06:55;;;;;;;;;;;;;;;5.51;71.12;99274.88;1729987;83;20194;-81